createdAt,value
2023-02-11T09:08:37.760Z,1.92
2023-02-11T09:16:46.467Z,2.99
2023-02-11T09:19:21.891Z,3.25
2023-02-11T09:21:51.717Z,3.41
2023-02-11T09:24:27.443Z,3.53
2023-02-11T09:26:55.747Z,3.76
2023-02-11T09:29:22.428Z,3.95
2023-02-11T09:31:50.044Z,4.05
2023-02-11T09:34:24.956Z,4.16
2023-02-11T09:39:40.872Z,4.28
2023-02-11T09:42:37.588Z,4.32
2023-02-11T09:51:00.408Z,4.06
2023-02-11T09:53:29.868Z,4.03
2023-02-11T09:55:59.558Z,4.07
2023-02-11T09:58:30.036Z,4.11
2023-02-11T10:01:04.035Z,4.16
2023-02-11T10:03:48.115Z,4.20
2023-02-11T10:06:38.971Z,4.17
2023-02-11T10:09:21.595Z,4.15
2023-02-11T10:11:55.837Z,4.18
2023-02-11T10:14:43.546Z,4.26
2023-02-11T10:17:21.004Z,4.35
2023-02-11T10:20:02.038Z,4.45
2023-02-11T10:22:33.639Z,4.52
2023-02-11T10:25:06.048Z,4.65
2023-02-11T10:27:34.767Z,4.78
2023-02-11T10:30:11.796Z,4.96
2023-02-11T10:32:44.075Z,5.16
2023-02-11T10:35:15.415Z,5.33
2023-02-11T10:37:44.450Z,5.69
2023-02-11T10:40:14.539Z,6.23
2023-02-11T10:42:44.239Z,6.66
2023-02-11T10:45:22.105Z,7.12
2023-02-11T10:47:48.813Z,7.44
2023-02-11T10:50:22.850Z,7.65
2023-02-11T10:52:50.025Z,7.66
2023-02-11T10:55:18.246Z,7.55
2023-02-11T10:57:52.570Z,7.50
2023-02-11T11:00:37.082Z,7.44
2023-02-11T11:03:05.875Z,7.36
2023-02-11T11:05:35.915Z,7.24
2023-02-11T11:08:05.515Z,7.16
2023-02-11T11:10:36.153Z,7.04
2023-02-11T11:13:03.272Z,6.98
2023-02-11T11:15:30.985Z,6.96
2023-02-11T11:18:21.954Z,6.93
2023-02-11T11:20:58.497Z,6.91
2023-02-11T11:23:25.940Z,6.88
2023-02-11T11:26:02.609Z,6.86
2023-02-11T11:28:33.250Z,6.85
2023-02-11T11:31:01.070Z,6.85
2023-02-11T11:33:33.788Z,6.86
2023-02-11T11:36:05.223Z,6.87
2023-02-11T11:38:34.683Z,6.88
2023-02-11T11:41:28.484Z,6.95
2023-02-11T11:43:57.489Z,7.01
2023-02-11T11:46:26.856Z,7.08
2023-02-11T11:49:00.851Z,7.12
2023-02-11T11:51:29.178Z,7.13
2023-02-11T11:54:00.653Z,7.11
2023-02-11T11:56:30.194Z,7.09
2023-02-11T11:58:57.171Z,7.09
2023-02-11T12:01:34.722Z,7.09
2023-02-11T12:04:43.915Z,7.12
2023-02-11T12:07:26.839Z,7.10
2023-02-11T12:10:09.920Z,7.10
2023-02-11T12:12:46.503Z,7.11
2023-02-11T12:15:29.301Z,7.11
2023-02-11T12:18:17.379Z,7.14
2023-02-11T12:21:03.678Z,7.16
2023-02-11T12:23:44.412Z,7.18
2023-02-11T12:26:15.781Z,7.25
2023-02-11T12:28:55.416Z,7.31
2023-02-11T12:31:35.285Z,7.36
2023-02-11T12:34:24.502Z,7.42
2023-02-11T12:37:03.015Z,7.49
2023-02-11T12:39:40.165Z,7.52
2023-02-11T12:42:45.421Z,7.56
2023-02-11T12:45:27.958Z,7.54
2023-02-11T12:48:07.343Z,7.54
2023-02-11T12:50:42.401Z,7.54
2023-02-11T12:53:25.772Z,7.56
2023-02-11T12:56:05.062Z,7.65
2023-02-11T12:58:44.917Z,7.72
2023-02-11T13:01:20.693Z,7.80
2023-02-11T13:03:53.382Z,7.94
2023-02-11T13:06:27.683Z,8.13
2023-02-11T13:09:00.352Z,8.40
2023-02-11T13:11:30.211Z,8.71
2023-02-11T13:14:02.150Z,9.02
2023-02-11T13:16:35.331Z,9.32
2023-02-11T13:19:10.227Z,9.48
2023-02-11T13:22:00.456Z,9.59
2023-02-11T13:24:34.699Z,9.67
2023-02-11T13:27:10.570Z,9.74
2023-02-11T13:29:49.379Z,9.76
2023-02-11T13:32:16.143Z,9.86
2023-02-11T13:34:58.094Z,10.03
2023-02-11T13:37:27.418Z,10.13
2023-02-11T13:40:01.709Z,10.16
2023-02-11T13:42:32.919Z,10.16
2023-02-11T13:45:01.502Z,10.21
2023-02-11T13:47:37.915Z,10.23
2023-02-11T13:50:08.297Z,10.19
2023-02-11T13:52:41.144Z,10.22
2023-02-11T13:55:19.826Z,10.27
2023-02-11T13:58:17.383Z,10.28
2023-02-11T14:00:53.443Z,10.21
2023-02-11T14:04:19.943Z,10.17
2023-02-11T14:07:45.519Z,10.13
2023-02-11T14:11:01.103Z,10.05
2023-02-11T14:13:33.639Z,10.01
2023-02-11T14:16:09.404Z,10.03
2023-02-11T14:18:59.589Z,10.06
2023-02-11T14:21:37.704Z,10.11
2023-02-11T14:24:45.011Z,10.13
2023-02-11T14:27:21.798Z,10.09
2023-02-11T14:30:03.380Z,10.05
2023-02-11T14:32:47.743Z,10.05
2023-02-11T14:35:38.344Z,10.10
2023-02-11T14:38:15.694Z,10.16
2023-02-11T14:40:54.157Z,10.21
2023-02-11T14:43:29.367Z,10.26
2023-02-11T14:46:05.989Z,10.29
2023-02-11T14:48:39.720Z,10.28
2023-02-11T14:51:11.313Z,10.27
2023-02-11T14:53:43.581Z,10.27
2023-02-11T14:56:19.557Z,10.27
2023-02-11T14:58:57.605Z,10.25
2023-02-11T15:01:40.830Z,10.24
2023-02-11T15:04:36.514Z,10.23
2023-02-11T15:09:53.217Z,10.21
2023-02-11T15:12:40.605Z,10.18
2023-02-11T15:15:13.062Z,10.08
2023-02-11T15:17:44.442Z,10.02
2023-02-11T15:20:25.857Z,10.00
2023-02-11T15:22:57.992Z,9.97
2023-02-11T15:25:28.287Z,9.93
2023-02-11T15:28:18.283Z,9.89
2023-02-11T15:31:05.787Z,9.86
2023-02-11T15:33:38.622Z,9.80
2023-02-11T15:36:16.284Z,9.76
2023-02-11T15:38:43.818Z,9.68
2023-02-11T15:41:34.886Z,9.62
2023-02-11T15:44:02.359Z,9.53
2023-02-11T15:46:38.279Z,9.44
2023-02-11T15:49:11.658Z,9.39
2023-02-11T15:54:30.122Z,9.21
2023-02-11T15:57:03.561Z,9.12
2023-02-11T15:59:35.275Z,9.03
2023-02-11T16:02:10.362Z,8.92
2023-02-11T16:04:39.552Z,8.78
2023-02-11T16:07:38.700Z,8.66
2023-02-11T16:10:21.727Z,8.55
2023-02-11T16:12:57.856Z,8.46
2023-02-11T16:15:43.378Z,8.38
2023-02-11T16:18:37.686Z,8.28
2023-02-11T16:21:13.071Z,8.14
2023-02-11T16:23:44.547Z,8.01
2023-02-11T16:26:22.581Z,7.85
2023-02-11T16:28:52.428Z,7.68
2023-02-11T16:31:19.905Z,7.56
2023-02-11T16:33:47.881Z,7.47
2023-02-11T16:36:24.555Z,7.37
2023-02-11T16:38:54.162Z,7.29
2023-02-11T16:41:21.455Z,7.20
2023-02-11T16:43:48.484Z,7.12
2023-02-11T16:46:16.726Z,7.05
2023-02-11T16:48:45.837Z,6.95
2023-02-11T16:51:14.226Z,6.83
2023-02-11T16:53:43.451Z,6.69
2023-02-11T16:56:17.033Z,6.59
2023-02-11T16:58:44.512Z,6.52
2023-02-11T17:01:13.938Z,6.46
2023-02-11T17:03:41.189Z,6.36
2023-02-11T17:06:11.698Z,6.28
2023-02-11T17:08:39.529Z,6.20
2023-02-11T17:11:07.636Z,6.15
2023-02-11T17:13:36.172Z,6.09
2023-02-11T17:16:03.270Z,6.09
2023-02-11T17:18:30.421Z,6.06
2023-02-11T17:20:57.150Z,6.01
2023-02-11T17:23:24.380Z,5.99
2023-02-11T17:25:57.189Z,5.97
2023-02-11T17:28:25.794Z,5.90
2023-02-11T17:30:52.703Z,5.84
2023-02-11T17:33:19.467Z,5.73
2023-02-11T17:35:46.624Z,5.68
2023-02-11T17:38:13.387Z,5.65
2023-02-11T17:40:40.121Z,5.58
2023-02-11T17:43:08.364Z,5.45
2023-02-11T17:45:41.102Z,5.33
2023-02-11T17:48:08.156Z,5.19
2023-02-11T17:50:36.336Z,5.11
2023-02-11T17:53:03.374Z,5.05
2023-02-11T17:55:33.189Z,4.98
2023-02-11T17:58:01.795Z,4.91
2023-02-11T18:00:29.349Z,4.86
2023-02-11T18:03:03.957Z,4.78
2023-02-11T18:05:35.020Z,4.73
2023-02-11T18:08:02.835Z,4.68
2023-02-11T18:10:30.527Z,4.66
2023-02-11T18:12:59.519Z,4.64
2023-02-11T18:15:26.991Z,4.61
2023-02-11T18:17:53.803Z,4.56
2023-02-11T18:20:22.404Z,4.49
2023-02-11T18:22:49.534Z,4.43
2023-02-11T18:25:17.600Z,4.37
2023-02-11T18:27:44.698Z,4.37
2023-02-11T18:30:15.598Z,4.36
2023-02-11T18:32:42.751Z,4.34
2023-02-11T18:35:14.796Z,4.31
2023-02-11T18:37:43.500Z,4.30
2023-02-11T18:40:12.219Z,4.26
2023-02-11T18:42:39.919Z,4.20
2023-02-11T18:45:10.445Z,4.14
2023-02-11T18:47:41.399Z,4.08
2023-02-11T18:50:12.294Z,4.04
2023-02-11T18:52:39.893Z,4.01
2023-02-11T18:55:09.744Z,3.97
2023-02-11T18:57:37.078Z,3.93
2023-02-11T19:00:04.803Z,3.89
2023-02-11T19:02:32.174Z,3.90
2023-02-11T19:05:01.264Z,3.92
2023-02-11T19:07:28.025Z,3.95
2023-02-11T19:09:55.691Z,4.00
2023-02-11T19:12:27.137Z,4.05
2023-02-11T19:14:55.972Z,4.07
2023-02-11T19:17:23.144Z,4.11
2023-02-11T19:19:50.931Z,4.13
2023-02-11T19:22:19.362Z,4.16
2023-02-11T19:24:48.491Z,4.14
2023-02-11T19:27:15.361Z,4.13
2023-02-11T19:29:43.839Z,4.15
2023-02-11T19:32:12.620Z,4.11
2023-02-11T19:34:41.845Z,4.06
2023-02-11T19:37:11.096Z,4.05
2023-02-11T19:39:37.964Z,4.05
2023-02-11T19:42:05.288Z,4.00
2023-02-11T19:44:32.306Z,3.89
2023-02-11T19:47:01.227Z,3.70
2023-02-11T19:49:28.437Z,3.54
2023-02-11T19:51:58.269Z,3.45
2023-02-11T19:54:32.009Z,3.39
2023-02-11T19:57:00.746Z,3.30
2023-02-11T19:59:27.673Z,3.25
2023-02-11T20:01:54.712Z,3.22
2023-02-11T20:04:25.468Z,3.19
2023-02-11T20:06:52.417Z,3.14
2023-02-11T20:09:19.940Z,3.12
2023-02-11T20:11:46.815Z,3.16
2023-02-11T20:14:17.772Z,3.19
2023-02-11T20:16:49.228Z,3.20
2023-02-11T20:19:25.885Z,3.18
2023-02-11T20:21:55.850Z,3.13
2023-02-11T20:24:24.506Z,3.07
2023-02-11T20:26:55.732Z,3.01
2023-02-11T20:29:34.894Z,2.97
2023-02-11T20:32:03.812Z,2.96
2023-02-11T20:34:38.459Z,2.94
2023-02-11T20:37:09.432Z,2.97
2023-02-11T20:39:37.610Z,3.02
2023-02-11T20:42:05.794Z,3.06
2023-02-11T20:44:32.641Z,3.07
2023-02-11T20:46:59.421Z,3.06
2023-02-11T20:49:28.346Z,3.02
2023-02-11T20:51:56.993Z,2.97
2023-02-11T20:54:26.255Z,2.88
2023-02-11T20:56:55.274Z,2.80
2023-02-11T20:59:24.877Z,2.75
2023-02-11T21:01:55.954Z,2.72
2023-02-11T21:04:25.317Z,2.67
2023-02-11T21:06:55.699Z,2.61
2023-02-11T21:09:26.008Z,2.55
2023-02-11T21:11:54.217Z,2.49
2023-02-11T21:14:23.390Z,2.42
2023-02-11T21:16:52.292Z,2.35
2023-02-11T21:19:20.444Z,2.33
2023-02-11T21:21:47.901Z,2.34
2023-02-11T21:24:15.994Z,2.37
2023-02-11T21:26:46.301Z,2.38
2023-02-11T21:29:13.138Z,2.39
2023-02-11T21:31:40.794Z,2.42
2023-02-11T21:34:08.226Z,2.44
2023-02-11T21:36:35.408Z,2.45
2023-02-11T21:39:03.966Z,2.49
2023-02-11T21:41:31.975Z,2.53
2023-02-11T21:44:00.805Z,2.58
2023-02-11T21:46:28.344Z,2.65
2023-02-11T21:48:55.192Z,2.69
2023-02-11T21:51:26.791Z,2.71
2023-02-11T21:53:55.638Z,2.73
2023-02-11T21:56:26.708Z,2.74
2023-02-11T21:58:56.317Z,2.75
2023-02-11T22:01:26.625Z,2.78
2023-02-11T22:03:53.547Z,2.74
2023-02-11T22:06:22.932Z,2.69
2023-02-11T22:08:50.825Z,2.58
2023-02-11T22:11:18.740Z,2.46
2023-02-11T22:13:46.789Z,2.34
2023-02-11T22:16:17.210Z,2.28
2023-02-11T22:18:46.493Z,2.19
2023-02-11T22:21:23.239Z,2.16
2023-02-11T22:23:56.553Z,2.12
2023-02-11T22:26:25.796Z,2.09
2023-02-11T22:28:57.502Z,2.11
2023-02-11T22:31:33.069Z,2.14
2023-02-11T22:34:05.417Z,2.18
2023-02-11T22:36:34.936Z,2.18
2023-02-11T22:39:04.950Z,2.17
2023-02-11T22:41:32.319Z,2.13
2023-02-11T22:43:59.561Z,2.12
2023-02-11T22:46:28.046Z,2.11
2023-02-11T22:48:55.340Z,2.13
2023-02-11T22:51:26.418Z,2.17
2023-02-11T22:53:55.434Z,2.24
2023-02-11T22:56:24.588Z,2.33
2023-02-11T22:58:53.813Z,2.37
2023-02-11T23:01:21.228Z,2.36
2023-02-11T23:03:48.415Z,2.37
2023-02-11T23:06:15.793Z,2.44
2023-02-11T23:08:45.139Z,2.50
2023-02-11T23:11:14.541Z,2.56
2023-02-11T23:13:43.264Z,2.59
2023-02-11T23:16:13.924Z,2.62
2023-02-11T23:18:42.890Z,2.61
2023-02-11T23:21:13.250Z,2.60
2023-02-11T23:23:42.987Z,2.59
2023-02-11T23:26:14.612Z,2.56
2023-02-11T23:28:42.107Z,2.55
2023-02-11T23:31:14.980Z,2.57
2023-02-11T23:33:42.581Z,2.57
2023-02-11T23:36:10.396Z,2.56
2023-02-11T23:38:37.535Z,2.57
2023-02-11T23:41:05.592Z,2.62
2023-02-11T23:43:39.048Z,2.71
2023-02-11T23:46:07.476Z,2.75
2023-02-11T23:48:36.370Z,2.81
2023-02-11T23:51:04.418Z,2.85
2023-02-11T23:53:31.890Z,2.89
2023-02-11T23:55:58.776Z,2.89
2023-02-11T23:58:25.699Z,2.83
